createdAt,value
2019-04-19T00:12:01.902Z,17.15
2019-04-19T00:14:39.932Z,20.23
2019-04-19T00:20:41.182Z,16.60
2019-04-19T00:26:06.172Z,18.85
2019-04-19T00:29:01.986Z,15.53
2019-04-19T00:32:00.280Z,16.93
2019-04-19T00:34:35.602Z,19.02
2019-04-19T00:37:24.745Z,17.67
2019-04-19T02:51:53.859Z,14.95
2019-04-19T03:21:32.019Z,20.08
2019-04-19T03:24:12.407Z,18.50
2019-04-19T03:48:04.325Z,18.10
2019-04-19T04:05:09.753Z,17.35
2019-04-19T04:32:05.269Z,23.15
2019-04-19T05:04:54.999Z,16.42
2019-04-19T05:10:35.362Z,15.70
2019-04-19T05:13:27.698Z,21.45
2019-04-19T05:16:27.117Z,16.30
2019-04-19T05:19:13.063Z,15.50
2019-04-19T05:22:00.936Z,16.40
2019-04-19T05:24:57.026Z,17.30
2019-04-19T05:27:38.989Z,18.75
2019-04-19T05:30:09.195Z,24.40
2019-04-19T05:33:09.466Z,18.95
2019-04-19T05:39:25.323Z,17.60
2019-04-19T06:08:45.716Z,16.57
2019-04-19T06:14:33.755Z,17.73
2019-04-19T06:17:11.310Z,15.77
2019-04-19T06:19:47.107Z,14.90
2019-04-19T06:22:14.319Z,15.40
2019-04-19T06:24:54.389Z,16.33
2019-04-19T06:27:33.754Z,14.70
2019-04-19T06:29:59.059Z,18.03
2019-04-19T06:32:26.992Z,20.93
2019-04-19T06:34:52.253Z,18.00
2019-04-19T06:37:10.229Z,15.83
2019-04-19T06:39:35.280Z,25.40
2019-04-19T06:42:07.746Z,15.90
2019-04-19T06:44:58.471Z,17.33
2019-04-19T06:47:15.810Z,18.37
2019-04-19T06:49:35.957Z,17.00
2019-04-19T06:52:11.871Z,21.40
2019-04-19T06:54:39.665Z,22.50
2019-04-19T06:57:16.124Z,17.40
2019-04-19T06:59:52.052Z,16.60
2019-04-19T07:02:07.221Z,13.63
2019-04-19T07:04:46.046Z,16.60
2019-04-19T07:07:28.414Z,16.10
2019-04-19T07:10:04.232Z,17.73
2019-04-19T07:12:30.297Z,19.43
2019-04-19T07:14:52.010Z,17.50
2019-04-19T07:17:29.065Z,16.70
2019-04-19T07:19:55.031Z,16.10
2019-04-19T07:22:22.821Z,16.97
2019-04-19T07:25:04.851Z,17.17
2019-04-19T07:27:22.553Z,21.53
2019-04-19T07:29:38.555Z,18.70
2019-04-19T07:32:08.255Z,16.80
2019-04-19T07:34:51.915Z,14.27
2019-04-19T07:37:23.725Z,13.80
2019-04-19T07:40:06.056Z,18.20
2019-04-19T07:42:28.007Z,14.67
2019-04-19T07:44:50.152Z,17.37
2019-04-19T07:47:22.614Z,17.33
2019-04-19T07:49:53.344Z,21.07
2019-04-19T07:52:19.062Z,18.63
2019-04-19T07:54:45.690Z,15.87
2019-04-19T08:00:10.032Z,13.70
2019-04-19T08:05:10.900Z,16.17
2019-04-19T08:07:50.303Z,14.30
2019-04-19T08:10:10.888Z,15.00
2019-04-19T08:12:40.570Z,15.30
2019-04-19T08:15:11.850Z,13.47
2019-04-19T08:17:41.571Z,13.43
2019-04-19T08:27:16.792Z,13.40
2019-04-19T08:29:54.188Z,13.60
2019-04-19T08:32:17.342Z,19.43
2019-04-19T08:34:52.049Z,16.00
2019-04-19T08:37:23.912Z,20.00
2019-04-19T08:40:02.805Z,14.20
2019-04-19T08:42:34.254Z,15.47
2019-04-19T08:44:56.440Z,21.27
2019-04-19T08:47:41.852Z,15.13
2019-04-19T08:50:12.666Z,14.47
2019-04-19T08:52:40.673Z,14.07
2019-04-19T08:55:32.952Z,18.40
2019-04-19T08:57:41.191Z,11.50
2019-04-19T09:00:41.370Z,15.40
2019-04-19T09:02:56.414Z,11.80
2019-04-19T09:05:27.260Z,13.30
2019-04-19T09:08:07.826Z,13.83
2019-04-19T09:10:31.824Z,19.13
2019-04-19T09:13:12.250Z,12.67
2019-04-19T09:15:28.299Z,10.20
2019-04-19T09:18:27.336Z,12.00
2019-04-19T09:20:37.443Z,15.43
2019-04-19T09:23:15.681Z,10.70
2019-04-19T09:25:43.553Z,11.70
2019-04-19T09:28:31.425Z,13.03
2019-04-19T09:30:51.345Z,12.23
2019-04-19T09:33:09.873Z,13.27
2019-04-19T09:35:39.931Z,14.47
2019-04-19T09:38:15.132Z,11.10
2019-04-19T09:40:41.559Z,15.00
2019-04-19T09:43:20.991Z,12.03
2019-04-19T09:45:34.052Z,10.77
2019-04-19T09:48:03.277Z,12.90
2019-04-19T09:50:49.256Z,10.30
2019-04-19T09:53:30.746Z,14.10
2019-04-19T09:55:50.931Z,11.43
2019-04-19T09:58:20.864Z,12.90
2019-04-19T10:00:33.988Z,13.63
2019-04-19T10:03:10.940Z,11.47
2019-04-19T10:05:34.903Z,11.80
2019-04-19T10:08:03.981Z,10.57
2019-04-19T10:10:33.317Z,12.40
2019-04-19T10:13:01.971Z,14.40
2019-04-19T10:15:36.257Z,9.90
2019-04-19T10:18:05.091Z,12.77
2019-04-19T10:20:36.338Z,11.97
2019-04-19T10:23:05.297Z,12.77
2019-04-19T10:25:45.885Z,10.63
2019-04-19T10:28:05.768Z,11.30
2019-04-19T10:30:38.614Z,12.40
2019-04-19T10:33:08.620Z,10.67
2019-04-19T10:35:37.856Z,10.87
2019-04-19T10:38:07.322Z,13.37
2019-04-19T10:40:36.008Z,11.83
2019-04-19T10:43:05.157Z,12.17
2019-04-19T10:45:34.238Z,9.40
2019-04-19T10:48:04.092Z,10.57
2019-04-19T10:50:45.666Z,10.30
2019-04-19T10:53:12.307Z,11.70
2019-04-19T10:55:45.061Z,13.83
2019-04-19T10:58:14.873Z,10.50
2019-04-19T11:00:49.785Z,10.50
2019-04-19T11:03:17.296Z,11.43
2019-04-19T11:05:47.408Z,11.97
2019-04-19T11:08:15.976Z,10.80
2019-04-19T11:10:51.665Z,8.77
2019-04-19T11:13:14.989Z,12.20
2019-04-19T11:15:44.573Z,10.40
2019-04-19T11:18:13.948Z,12.03
2019-04-19T11:20:48.327Z,10.93
2019-04-19T11:23:13.600Z,11.20
2019-04-19T11:25:45.804Z,15.10
2019-04-19T11:28:13.356Z,14.17
2019-04-19T11:30:47.151Z,13.17
2019-04-19T11:33:21.205Z,12.17
2019-04-19T11:35:55.490Z,11.50
2019-04-19T11:38:25.046Z,11.20
2019-04-19T11:40:53.706Z,11.83
2019-04-19T11:43:22.206Z,9.63
2019-04-19T11:45:51.601Z,11.23
2019-04-19T11:48:20.564Z,12.23
2019-04-19T11:50:49.669Z,10.50
2019-04-19T11:53:23.049Z,9.40
2019-04-19T11:55:54.485Z,9.67
2019-04-19T11:58:24.256Z,10.33
2019-04-19T12:01:12.629Z,10.03
2019-04-19T12:03:43.297Z,11.40
2019-04-19T12:06:12.173Z,9.90
2019-04-19T12:08:42.353Z,12.07
2019-04-19T12:11:12.517Z,11.37
2019-04-19T12:14:01.787Z,10.50
2019-04-19T12:16:50.938Z,11.67
2019-04-19T12:19:46.317Z,9.10
2019-04-19T12:22:28.681Z,9.30
2019-04-19T12:25:17.614Z,9.50
2019-04-19T12:28:05.698Z,11.90
2019-04-19T12:30:56.955Z,11.63
2019-04-19T12:33:44.991Z,15.30
2019-04-19T12:36:33.522Z,20.00
2019-04-19T12:39:20.994Z,9.07
2019-04-19T12:45:04.040Z,9.53
2019-04-19T12:53:56.353Z,12.80
2019-04-19T13:05:51.267Z,8.97
2019-04-19T13:11:45.049Z,10.07
2019-04-19T13:17:24.798Z,9.70
2019-04-19T14:52:30.268Z,9.00
2019-04-19T15:19:04.460Z,11.30
2019-04-19T16:30:28.304Z,12.40
2019-04-19T16:33:09.449Z,12.67
2019-04-19T16:35:49.738Z,14.23
2019-04-19T16:38:30.598Z,12.50
2019-04-19T16:41:08.793Z,14.37
2019-04-19T17:19:55.091Z,8.23
2019-04-19T17:55:48.225Z,12.80
2019-04-19T17:58:25.596Z,13.53
2019-04-19T18:01:06.433Z,8.00
2019-04-19T18:03:44.962Z,8.77
2019-04-19T18:33:18.159Z,8.63
2019-04-19T19:42:24.209Z,11.70
2019-04-19T19:56:53.897Z,8.10
2019-04-19T20:41:03.958Z,5.35
2019-04-19T21:04:38.756Z,6.20
2019-04-19T21:13:20.505Z,5.35
2019-04-19T21:16:00.353Z,5.95
2019-04-19T21:57:32.629Z,6.83
2019-04-19T22:00:18.061Z,6.30
2019-04-19T22:59:41.420Z,6.62
2019-04-19T23:26:25.152Z,7.75
